Impacts TAF Board INFO
FOR SITUATIONAL AWARENESS. NOT TO BE USED FOR FLIGHT PLANNING PURPOSES.
IDs:

KHBG - Hattiesburg/Chain Mu, MS, US

Issued at 1731 UTC 15 Aug 2018
Updated at 2043 UTC 15 Aug 2018
Potential Impact None Slight Moderate High
Time<<16/09Z 16/10Z 16/11Z 16/12Z 16/13Z 16/14Z 16/15Z 16/16Z 16/17Z 16/18Z 16/19Z 16/20Z 16/21Z>>
Type PRVL PRVL PRVL PRVL PRVL PRVL PRVL PRVL PRVL
VIS >6 5 5 5 5 >6 >6 >6 >6
CIG -- -- -- -- -- -- -- -- --
Cover SKC FEW FEW FEW FEW SKC SKC SKC SKC
FltCat VFR MVFR MVFR MVFR MVFR VFR VFR VFR VFR
WX -- BR BR BR BR -- -- -- --
WDir 160 VRB VRB VRB VRB VRB VRB VRB VRB
WSpd 3 0 0 0 0 3 3 3 3
WGst -- -- -- -- -- -- -- -- --

Raw TAF
KHBG 151731Z 1518/1618 11004KT P6SM SCT040
  FM152000 12005KT P6SM VCTS SCT050CB SCT250
  FM160000 16003KT P6SM SKC
  FM161000 00000KT 5SM BR FEW002
  FM161400 VRB03KT P6SM SKC


METAR Board
Radar Display
Forecast Discussion

FOR SITUATIONAL AWARENESS. NOT TO BE USED FOR FLIGHT PLANNING PURPOSES.